Latest Weather Observations for Groote Eylandt Airport

IDD60801

Issued at 7:41 pm CST Sunday 16 December 2018 (issued every 10 minutes, with the page automatically refreshed every 10 minutes)

About weather observations | Map of weather stations | Latest weather observations for NT | Other Formats
Station Details ID: 014518 Name: GROOTE EYLANDT AIRPORT Lat: -13.97 Lon: 136.46 Height: 13.7 m
Data from the previous 72 hours. | See also: Recent months at Groote Eylandt Airport
Date/Time
CST
Temp
°C
App
Temp
°C
Dew
Point
°C
Rel
Hum
%
Delta-T
°C
Wind Press
QNH
hPa
Press
MSL
hPa
Rain since
9am
mm
Dir  Spd
km/h
Gust
km/h
Spd
kts
Gust
kts
16/07:30pm 31.2 36.2 26.5 76 3.4 NE 13 17 7 9 1005.4 1005.3 0.0
16/07:00pm 31.8 36.3 26.4 73 3.9 ENE 15 19 8 10 1004.7 1004.6 0.0
16/06:30pm 32.8 36.6 25.9 67 4.9 ENE 17 22 9 12 1004.1 1004.0 0.0
16/06:00pm 34.0 38.4 26.2 63 5.6 ESE 15 19 8 10 1003.6 1003.5 0.0
16/05:30pm 35.0 38.7 25.8 59 6.6 E 17 20 9 11 1003.4 1003.3 0.0
16/05:00pm 35.1 38.9 25.3 57 7.0 E 15 20 8 11 1003.0 1002.9 0.0
16/04:30pm 36.3 38.2 22.8 45 9.4 E 17 24 9 13 1002.9 1002.8 0.0
16/04:00pm 36.3 39.2 22.5 45 9.5 E 11 15 6 8 1002.9 1002.8 0.0
16/03:30pm 35.5 38.6 22.8 47 8.8 ESE 11 19 6 10 1003.4 1003.3 0.0
16/03:00pm 36.6 40.6 23.1 45 9.4 WNW 7 13 4 7 1004.0 1003.9 0.0
16/02:30pm 36.3 40.8 23.9 49 8.7 NNW 7 15 4 8 1004.2 1004.1 0.0
16/02:00pm 35.8 40.0 24.7 52 7.9 WSW 11 15 6 8 1004.6 1004.5 0.0
16/01:43pm 35.4 39.2 24.0 51 8.0 WNW 11 19 6 10 1004.8 1004.7 0.0
16/01:30pm 35.5 39.5 23.8 50 8.2 W 9 15 5 8 1005.0 1004.9 0.0
16/01:23pm 35.7 40.4 24.9 53 7.7 WNW 9 15 5 8 1005.0 1004.9 0.0
16/01:00pm 35.0 39.1 24.0 53 7.7 NW 9 13 5 7 1005.2 1005.1 0.0
16/12:30pm 34.2 38.4 24.7 57 6.7 WNW 11 17 6 9 1005.7 1005.6 0.0
16/12:00pm 33.7 38.5 25.7 63 5.7 NW 11 17 6 9 1006.0 1005.9 0.0
16/11:30am 33.1 38.0 25.9 66 5.2 WNW 11 17 6 9 1006.3 1006.2 0.0
16/11:00am 32.4 36.7 25.5 67 4.9 WNW 13 20 7 11 1006.5 1006.4 0.0
16/10:30am 32.3 36.7 25.6 67 4.8 NW 13 19 7 10 1006.6 1006.5 0.0
16/10:00am 31.8 36.3 26.4 73 3.9 NNW 15 20 8 11 1006.8 1006.7 0.0
16/09:30am 31.2 35.9 26.7 77 3.2 NNW 15 22 8 12 1007.1 1007.0 0.0
16/09:00am 30.5 34.8 26.7 80 2.7 N 17 24 9 13 1007.4 1007.3 0.2
16/08:30am 30.3 35.0 26.7 81 2.6 NNW 15 22 8 12 1007.5 1007.4 0.2
16/08:00am 29.9 34.1 26.5 82 2.4 NNW 17 24 9 13 1007.3 1007.2 0.2
16/07:30am 29.5 33.7 26.5 84 2.1 NNW 17 22 9 12 1007.2 1007.1 0.2
16/07:00am 29.1 33.7 26.5 86 1.9 NNW 15 24 8 13 1006.8 1006.7 0.2
16/06:30am 28.0 33.8 26.0 89 1.4 NNW 7 11 4 6 1006.5 1006.4 0.2
16/06:00am 27.8 32.9 25.6 88 1.6 N 9 13 5 7 1006.1 1006.0 0.2
16/05:30am 28.1 32.9 25.7 87 1.7 N 11 15 6 8 1005.7 1005.6 0.2
16/05:00am 27.5 33.2 26.4 94 0.8 N 9 13 5 7 1005.3 1005.2 0.2
16/04:30am 27.3 33.3 26.1 93 0.9 N 6 7 3 4 1005.0 1004.9 0.2
16/04:00am 27.0 33.0 26.0 94 0.7 NNE 6 9 3 5 1004.6 1004.5 0.2
16/03:30am 27.4 33.2 25.8 91 1.1 N 6 7 3 4 1004.6 1004.5 0.2
16/03:17am 27.4 33.0 25.8 91 1.1 NNE 7 9 4 5 1004.5 1004.4 0.2
16/03:00am 27.6 33.2 25.8 90 1.3 N 7 11 4 6 1004.5 1004.4 0.2
16/02:57am 27.6 33.2 25.8 90 1.3 N 7 11 4 6 1004.5 1004.4 0.2
16/02:30am 27.7 33.6 25.9 90 1.3 N 6 9 3 5 1004.4 1004.3 0.2
16/02:00am 27.4 33.2 26.0 92 1.0 NNE 7 9 4 5 1004.5 1004.4 0.2
16/01:30am 27.1 33.4 26.0 94 0.8 NNE 4 6 2 3 1004.8 1004.7 0.2
16/01:00am 26.9 32.6 25.9 94 0.7 ENE 7 9 4 5 1004.9 1004.8 0.2
16/12:30am 27.0 34.0 25.8 93 0.8 CALM 0 0 0 0 1005.2 1005.1 0.2
16/12:00am 27.4 34.1 26.0 92 1.0 NNE 2 7 1 4 1005.1 1005.0 0.2
 
Date/Time
CST
Temp
°C
App
Temp
°C
Dew
Point
°C
Rel
Hum
%
Delta-T
°C
Wind Press
QNH
hPa
Press
MSL
hPa
Rain since
9am
mm
Dir  Spd
km/h
Gust
km/h
Spd
kts
Gust
kts
15/11:30pm 27.5 33.2 25.9 91 1.1 ENE 7 11 4 6 1004.6 1004.5 0.2
15/11:00pm 27.4 33.4 26.0 92 1.0 NE 6 9 3 5 1004.5 1004.4 0.2
15/10:30pm 26.8 32.4 25.4 92 1.0 ENE 6 7 3 4 1004.6 1004.5 0.2
15/10:00pm 26.8 32.3 25.6 93 0.8 E 7 7 4 4 1004.6 1004.5 0.2
15/09:30pm 26.8 32.1 25.0 90 1.3 E 6 7 3 4 1004.8 1004.7 0.2
15/09:00pm 27.4 34.0 25.8 91 1.1 SE 2 9 1 5 1004.7 1004.6 0.2
15/08:30pm 27.1 32.5 25.1 89 1.4 SE 6 7 3 4 1005.0 1004.9 0.2
15/08:00pm 27.6 32.9 25.0 86 1.8 ENE 6 7 3 4 1004.7 1004.6 0.2
15/07:30pm 28.3 34.6 24.7 81 2.5 CALM 0 0 0 0 1004.5 1004.4 0.2
15/07:00pm 29.2 35.3 24.5 76 3.3 CALM 0 2 0 1 1004.0 1003.9 0.2
15/06:30pm 30.3 34.9 24.2 70 4.3 N 7 13 4 7 1003.8 1003.7 0.2
15/06:00pm 30.7 35.2 24.6 70 4.3 N 9 11 5 6 1003.5 1003.4 0.2
15/05:30pm 31.2 35.4 24.1 66 5.0 N 9 13 5 7 1003.4 1003.3 0.2
15/05:00pm 32.0 35.6 23.8 62 5.7 N 11 17 6 9 1003.2 1003.1 0.2
15/04:30pm 32.1 35.2 24.2 63 5.5 N 15 19 8 10 1003.0 1002.9 0.2
15/04:00pm 32.0 36.0 25.1 67 4.9 NNW 13 19 7 10 1003.2 1003.1 0.2
15/03:30pm 31.2 34.3 24.8 69 4.5 N 17 20 9 11 1003.3 1003.2 0.2
15/03:00pm 31.6 35.8 25.9 72 4.1 NNW 15 20 8 11 1003.5 1003.4 0.2
15/02:30pm 31.4 35.2 26.4 75 3.6 NW 19 22 10 12 1003.8 1003.7 0.2
15/02:00pm 31.7 35.9 25.3 69 4.5 NNW 13 20 7 11 1004.2 1004.1 0.2
15/01:30pm 31.5 35.5 25.1 69 4.5 NNW 13 20 7 11 1004.5 1004.4 0.2
15/01:00pm 31.4 36.2 26.2 74 3.7 WNW 13 17 7 9 1005.0 1004.9 0.2
15/12:30pm 31.6 38.4 26.2 73 3.9 NNE 2 11 1 6 1005.0 1004.9 0.2
15/12:00pm 30.9 36.6 26.4 77 3.2 NNW 9 13 5 7 1005.6 1005.5 0.2
15/11:30am 30.6 35.7 25.0 72 3.9 WNW 7 13 4 7 1005.8 1005.7 0.2
15/11:00am 31.0 35.7 23.9 66 4.9 N 6 9 3 5 1006.3 1006.2 0.2
15/10:30am 30.3 34.6 24.2 70 4.3 NE 9 13 5 7 1006.3 1006.2 0.2
15/10:00am 29.9 34.7 24.5 73 3.8 N 7 11 4 6 1007.0 1006.9 0.0
15/09:30am 29.3 33.4 24.0 73 3.7 NNE 9 13 5 7 1007.2 1007.1 0.0
15/09:00am 28.8 33.7 25.2 81 2.5 E 9 13 5 7 1007.0 1006.9 4.2
15/08:30am 27.9 33.3 25.5 87 1.7 N 7 9 4 5 1007.0 1006.9 4.2
15/08:00am 27.5 34.1 25.3 88 1.5 CALM 0 4 0 2 1006.4 1006.3 4.2
15/07:30am 26.9 32.2 25.3 91 1.1 SE 7 9 4 5 1005.7 1005.6 4.2
15/07:00am 26.3 31.6 24.9 92 1.0 SE 6 7 3 4 1005.5 1005.4 4.2
15/06:30am 26.2 31.5 25.0 93 0.8 ENE 6 7 3 4 1005.8 1005.7 4.2
15/06:00am 26.1 32.2 24.5 91 1.1 CALM 0 0 0 0 1005.2 1005.1 4.2
15/05:30am 25.9 30.6 23.9 89 1.4 SE 6 7 3 4 1004.7 1004.6 4.2
15/05:00am 25.9 30.4 23.6 87 1.6 S 6 9 3 5 1004.1 1004.0 4.2
15/04:30am 25.8 29.6 23.5 87 1.6 SSW 9 15 5 8 1003.5 1003.4 4.2
15/04:04am 27.0 29.5 22.4 76 3.1 N 13 19 7 10 1002.5 1002.4 4.2
15/04:00am 26.7 28.4 22.3 77 3.0 NNE 17 20 9 11 1002.5 1002.4 4.2
15/03:43am 27.0 31.7 25.0 89 1.4 SSE 9 19 5 10 1003.6 1003.5 1.8
15/03:30am 27.5 32.6 24.9 86 1.8 SSE 7 9 4 5 1003.8 1003.7 0.0
15/03:00am 27.6 34.2 25.2 87 1.7 CALM 0 0 0 0 1003.6 1003.5 0.0
15/02:30am 27.8 33.4 24.8 84 2.1 W 4 6 2 3 1003.9 1003.8 0.0
15/02:00am 28.2 33.1 24.4 80 2.6 NW 6 7 3 4 1003.8 1003.7 0.0
15/01:30am 28.6 32.5 24.2 77 3.1 NNW 11 17 6 9 1003.5 1003.4 0.0
15/01:00am 28.0 31.2 24.4 81 2.5 NNW 15 20 8 11 1003.8 1003.7 0.0
15/12:30am 28.6 33.4 24.4 78 2.9 ESE 7 11 4 6 1003.5 1003.4 0.0
15/12:00am 28.6 32.5 24.2 77 3.1 ESE 11 15 6 8 1003.4 1003.3 0.0
 
Date/Time
CST
Temp
°C
App
Temp
°C
Dew
Point
°C
Rel
Hum
%
Delta-T
°C
Wind Press
QNH
hPa
Press
MSL
hPa
Rain since
9am
mm
Dir  Spd
km/h
Gust
km/h
Spd
kts
Gust
kts
14/11:30pm 28.6 33.0 24.4 78 2.9 ESE 9 13 5 7 1003.8 1003.7 0.0
14/11:00pm 28.7 32.6 24.3 77 3.1 ESE 11 15 6 8 1003.7 1003.6 0.0
14/10:30pm 28.8 32.8 24.4 77 3.1 ESE 11 17 6 9 1003.9 1003.8 0.0
14/10:00pm 28.8 33.0 24.1 76 3.3 ESE 9 15 5 8 1004.0 1003.9 0.0
14/09:30pm 28.7 33.2 24.0 76 3.3 SE 7 9 4 5 1003.8 1003.7 0.0
14/09:00pm 29.2 33.3 24.5 76 3.3 ESE 11 17 6 9 1003.3 1003.2 0.0
14/08:30pm 29.4 32.8 24.0 72 3.8 SSE 13 22 7 12 1003.9 1003.8 0.0
14/08:00pm 29.4 33.6 23.4 70 4.1 SE 7 11 4 6 1003.5 1003.4 0.0
14/07:30pm 29.6 34.1 24.0 72 3.9 SE 7 9 4 5 1002.7 1002.6 0.0
14/07:00pm 30.1 36.1 24.3 71 4.0 CALM 0 0 0 0 1002.4 1002.3 0.0
14/06:30pm 31.1 36.9 24.0 66 5.0 CALM 0 0 0 0 1001.9 1001.8 0.0
14/06:00pm 31.7 37.2 24.0 63 5.4 SSE 2 6 1 3 1001.3 1001.2 0.0
14/05:30pm 32.0 36.6 23.8 62 5.7 SW 6 9 3 5 1001.2 1001.1 0.0
14/05:00pm 32.1 36.6 23.9 62 5.7 SW 7 13 4 7 1001.0 1000.9 0.0
14/04:30pm 32.0 35.6 23.0 59 6.2 SSW 9 13 5 7 1000.8 1000.7 0.0
14/04:00pm 32.3 35.0 23.5 59 6.1 SW 15 24 8 13 1000.7 1000.6 0.0
14/03:30pm 32.6 35.7 23.5 58 6.3 SW 13 24 7 13 1000.9 1000.8 0.0
14/03:00pm 32.1 34.4 22.8 58 6.4 SW 15 26 8 14 1001.1 1001.0 0.0
14/02:30pm 31.5 33.7 23.3 61 5.7 SW 17 37 9 20 1001.4 1001.3 0.0
14/02:00pm 31.6 34.6 24.0 64 5.3 SW 15 26 8 14 1001.7 1001.6 0.0
14/01:30pm 31.4 33.9 23.2 61 5.7 SW 15 26 8 14 1001.9 1001.8 0.0
14/01:00pm 31.3 33.5 24.2 66 5.0 SW 20 35 11 19 1002.2 1002.1 0.0
14/12:30pm 30.8 32.7 23.5 65 5.1 SW 19 32 10 17 1002.4 1002.3 0.0
14/12:00pm 30.7 32.6 24.4 69 4.4 SW 22 39 12 21 1002.9 1002.8 0.0
14/11:30am 30.6 33.4 24.3 69 4.4 SW 17 28 9 15 1002.9 1002.8 0.0
14/11:00am 30.0 32.4 23.7 69 4.4 SW 17 33 9 18 1003.1 1003.0 0.0
14/10:30am 28.4 31.3 24.4 79 2.8 WSW 17 33 9 18 1003.5 1003.4 0.0
14/10:00am 28.1 31.3 24.9 83 2.2 W 17 26 9 14 1003.8 1003.7 0.0
14/09:30am 28.7 31.6 24.5 78 2.9 W 17 32 9 17 1003.5 1003.4 0.0
14/09:00am 28.5 30.2 24.1 77 3.1 W 22 35 12 19 1003.6 1003.5 0.8
14/08:30am 28.4 30.3 23.8 76 3.2 W 20 30 11 16 1003.4 1003.3 0.8
14/08:00am 28.3 30.6 24.1 78 2.9 W 19 33 10 18 1003.0 1002.9 0.8
14/07:30am 27.9 29.9 23.9 79 2.8 W 20 32 11 17 1002.8 1002.7 0.8
14/07:00am 27.8 29.4 23.8 79 2.8 W 22 32 12 17 1003.2 1003.1 0.8
14/06:30am 27.7 28.8 23.7 79 2.8 W 24 35 13 19 1002.9 1002.8 0.8
14/06:00am 27.6 29.5 23.8 80 2.6 WNW 20 28 11 15 1002.7 1002.6 0.8
14/05:30am 27.6 29.5 23.8 80 2.6 WNW 20 32 11 17 1002.0 1001.9 0.8
14/05:00am 27.9 28.9 24.1 80 2.6 WNW 26 35 14 19 1001.7 1001.6 0.8
14/04:30am 28.4 30.7 24.4 79 2.8 W 20 32 11 17 1001.8 1001.7 0.8
14/04:00am 28.0 30.6 24.0 79 2.8 W 17 24 9 13 1000.8 1000.7 0.8
14/03:30am 27.9 29.8 23.5 77 3.0 W 19 30 10 16 1000.6 1000.5 0.8
14/03:00am 28.0 29.9 23.4 76 3.2 W 19 28 10 15 1001.0 1000.9 0.8
14/02:30am 28.1 29.7 23.2 74 3.4 W 20 30 11 16 1000.6 1000.5 0.8
14/02:00am 28.2 30.3 23.8 77 3.0 WNW 19 30 10 16 1001.0 1000.9 0.8
14/01:30am 28.4 31.0 24.6 80 2.7 W 19 28 10 15 1001.2 1001.1 0.8
14/01:00am 28.4 30.8 24.2 78 2.9 W 19 30 10 16 1001.2 1001.1 0.8
14/12:30am 28.6 32.1 24.2 77 3.1 W 13 20 7 11 1001.8 1001.7 0.8
14/12:00am 29.1 31.7 24.0 74 3.5 W 17 26 9 14 1002.1 1002.0 0.8
 
Date/Time
CST
Temp
°C
App
Temp
°C
Dew
Point
°C
Rel
Hum
%
Delta-T
°C
Wind Press
QNH
hPa
Press
MSL
hPa
Rain since
9am
mm
Dir  Spd
km/h
Gust
km/h
Spd
kts
Gust
kts
13/11:30pm 29.3 31.6 23.5 71 4.0 WSW 17 30 9 16 1002.2 1002.1 0.8
13/11:00pm 29.3 31.1 23.3 70 4.1 WSW 19 32 10 17 1002.5 1002.4 0.8
13/10:30pm 29.4 30.5 23.1 69 4.3 WSW 22 37 12 20 1002.6 1002.5 0.8
13/10:00pm 29.1 30.7 23.3 71 4.0 WSW 20 35 11 19 1002.3 1002.2 0.8
13/09:30pm 28.9 30.7 23.6 73 3.7 WSW 20 39 11 21 1001.9 1001.8 0.8
13/09:00pm 28.8 30.8 23.9 75 3.4 WSW 20 33 11 18 1002.1 1002.0 0.8
13/08:30pm 28.9 31.4 24.7 78 2.9 WSW 20 41 11 22 1001.7 1001.6 0.8
13/08:00pm 30.0 31.9 23.7 69 4.4 W 20 30 11 16 1001.4 1001.3 0.8

Other Formats:

Comma delimited format used in spreadsheet applications
http://www.bom.gov.au/fwo/IDD60801/IDD60801.94153.axf

JavaScript Object Notation format (JSON) in row-major order
http://www.bom.gov.au/fwo/IDD60801/IDD60801.94153.json